sensor_id;sensor_type;location;lat;lon;timestamp;temperature;humidity
2621;DHT22;1320;48.128;11.592;2023-07-20T00:01:11;24.10;83.20
2621;DHT22;1320;48.128;11.592;2023-07-20T00:03:37;24.00;83.00
2621;DHT22;1320;48.128;11.592;2023-07-20T00:06:03;24.00;82.90
2621;DHT22;1320;48.128;11.592;2023-07-20T00:08:30;23.90;82.90
2621;DHT22;1320;48.128;11.592;2023-07-20T00:10:56;23.80;83.30
2621;DHT22;1320;48.128;11.592;2023-07-20T00:13:22;23.80;83.60
2621;DHT22;1320;48.128;11.592;2023-07-20T00:15:48;23.80;83.90
2621;DHT22;1320;48.128;11.592;2023-07-20T00:18:13;23.70;84.00
2621;DHT22;1320;48.128;11.592;2023-07-20T00:20:39;23.70;84.40
2621;DHT22;1320;48.128;11.592;2023-07-20T00:23:05;23.70;84.60
2621;DHT22;1320;48.128;11.592;2023-07-20T00:25:31;23.70;84.20
2621;DHT22;1320;48.128;11.592;2023-07-20T00:27:57;23.70;84.50
2621;DHT22;1320;48.128;11.592;2023-07-20T00:30:23;23.70;84.70
2621;DHT22;1320;48.128;11.592;2023-07-20T00:32:49;23.70;84.60
2621;DHT22;1320;48.128;11.592;2023-07-20T00:35:14;23.70;84.50
2621;DHT22;1320;48.128;11.592;2023-07-20T00:37:40;23.70;84.50
2621;DHT22;1320;48.128;11.592;2023-07-20T00:40:06;23.70;84.70
2621;DHT22;1320;48.128;11.592;2023-07-20T00:42:35;23.70;84.40
2621;DHT22;1320;48.128;11.592;2023-07-20T00:45:00;23.70;84.70
2621;DHT22;1320;48.128;11.592;2023-07-20T00:47:27;23.70;84.50
2621;DHT22;1320;48.128;11.592;2023-07-20T00:49:54;23.70;84.60
2621;DHT22;1320;48.128;11.592;2023-07-20T00:52:21;23.70;84.70
2621;DHT22;1320;48.128;11.592;2023-07-20T00:54:49;23.60;84.90
2621;DHT22;1320;48.128;11.592;2023-07-20T00:57:15;23.60;84.80
2621;DHT22;1320;48.128;11.592;2023-07-20T00:59:42;23.60;85.10
2621;DHT22;1320;48.128;11.592;2023-07-20T01:02:07;23.60;85.30
2621;DHT22;1320;48.128;11.592;2023-07-20T01:04:34;23.70;85.00
2621;DHT22;1320;48.128;11.592;2023-07-20T01:07:13;23.70;85.30
2621;DHT22;1320;48.128;11.592;2023-07-20T01:09:52;23.70;85.10
2621;DHT22;1320;48.128;11.592;2023-07-20T01:12:40;23.60;85.10
2621;DHT22;1320;48.128;11.592;2023-07-20T01:15:07;23.60;85.30
2621;DHT22;1320;48.128;11.592;2023-07-20T01:17:34;23.60;85.60
2621;DHT22;1320;48.128;11.592;2023-07-20T01:20:00;23.60;85.60
2621;DHT22;1320;48.128;11.592;2023-07-20T01:31:25;23.50;86.60
2621;DHT22;1320;48.128;11.592;2023-07-20T01:34:01;23.50;86.40
2621;DHT22;1320;48.128;11.592;2023-07-20T01:36:30;23.50;86.70
2621;DHT22;1320;48.128;11.592;2023-07-20T01:38:56;23.50;87.30
2621;DHT22;1320;48.128;11.592;2023-07-20T01:41:23;23.50;87.00
2621;DHT22;1320;48.128;11.592;2023-07-20T01:43:48;23.50;86.60
2621;DHT22;1320;48.128;11.592;2023-07-20T01:46:14;23.40;87.00
2621;DHT22;1320;48.128;11.592;2023-07-20T01:48:40;23.40;87.00
2621;DHT22;1320;48.128;11.592;2023-07-20T01:51:05;23.40;87.00
2621;DHT22;1320;48.128;11.592;2023-07-20T01:53:31;23.30;87.20
2621;DHT22;1320;48.128;11.592;2023-07-20T01:55:57;23.30;87.60
2621;DHT22;1320;48.128;11.592;2023-07-20T01:58:23;23.30;87.40
2621;DHT22;1320;48.128;11.592;2023-07-20T02:00:49;23.20;87.40
2621;DHT22;1320;48.128;11.592;2023-07-20T02:03:15;23.20;87.40
2621;DHT22;1320;48.128;11.592;2023-07-20T02:05:43;23.10;87.60
2621;DHT22;1320;48.128;11.592;2023-07-20T02:08:10;23.10;88.00
2621;DHT22;1320;48.128;11.592;2023-07-20T02:10:36;23.10;88.00
2621;DHT22;1320;48.128;11.592;2023-07-20T02:13:02;23.10;87.80
2621;DHT22;1320;48.128;11.592;2023-07-20T02:15:28;23.00;87.90
2621;DHT22;1320;48.128;11.592;2023-07-20T02:17:54;22.90;87.90
2621;DHT22;1320;48.128;11.592;2023-07-20T02:20:19;22.90;88.10
2621;DHT22;1320;48.128;11.592;2023-07-20T02:22:46;22.80;88.20
2621;DHT22;1320;48.128;11.592;2023-07-20T02:25:12;22.80;88.60
2621;DHT22;1320;48.128;11.592;2023-07-20T02:27:38;22.80;88.30
2621;DHT22;1320;48.128;11.592;2023-07-20T02:30:04;22.90;87.80
2621;DHT22;1320;48.128;11.592;2023-07-20T02:32:32;22.80;87.70
2621;DHT22;1320;48.128;11.592;2023-07-20T02:34:58;22.80;87.60
2621;DHT22;1320;48.128;11.592;2023-07-20T02:37:24;22.70;88.20
2621;DHT22;1320;48.128;11.592;2023-07-20T02:39:50;22.60;88.70
2621;DHT22;1320;48.128;11.592;2023-07-20T02:42:15;22.60;88.50
2621;DHT22;1320;48.128;11.592;2023-07-20T02:44:41;22.60;89.00
2621;DHT22;1320;48.128;11.592;2023-07-20T02:47:07;22.60;88.20
2621;DHT22;1320;48.128;11.592;2023-07-20T02:49:32;22.60;88.10
2621;DHT22;1320;48.128;11.592;2023-07-20T02:51:58;22.50;88.20
2621;DHT22;1320;48.128;11.592;2023-07-20T02:54:24;22.50;88.90
2621;DHT22;1320;48.128;11.592;2023-07-20T02:56:49;22.60;88.20
2621;DHT22;1320;48.128;11.592;2023-07-20T02:59:15;22.60;88.40
2621;DHT22;1320;48.128;11.592;2023-07-20T03:01:41;22.50;89.00
2621;DHT22;1320;48.128;11.592;2023-07-20T03:04:08;22.40;89.60
2621;DHT22;1320;48.128;11.592;2023-07-20T03:06:36;22.30;91.10
2621;DHT22;1320;48.128;11.592;2023-07-20T03:09:02;22.20;91.60
2621;DHT22;1320;48.128;11.592;2023-07-20T03:11:28;22.00;92.10
2621;DHT22;1320;48.128;11.592;2023-07-20T03:13:53;21.80;91.90
2621;DHT22;1320;48.128;11.592;2023-07-20T03:16:19;21.60;92.50
2621;DHT22;1320;48.128;11.592;2023-07-20T03:18:45;21.50;92.70
2621;DHT22;1320;48.128;11.592;2023-07-20T03:21:12;21.40;93.00
2621;DHT22;1320;48.128;11.592;2023-07-20T03:23:39;21.30;93.30
2621;DHT22;1320;48.128;11.592;2023-07-20T03:26:05;21.20;93.50
2621;DHT22;1320;48.128;11.592;2023-07-20T03:28:36;21.10;93.10
2621;DHT22;1320;48.128;11.592;2023-07-20T03:33:30;20.90;93.50
2621;DHT22;1320;48.128;11.592;2023-07-20T03:35:56;20.80;94.20
2621;DHT22;1320;48.128;11.592;2023-07-20T03:38:23;20.70;94.90
2621;DHT22;1320;48.128;11.592;2023-07-20T03:40:56;20.50;95.20
2621;DHT22;1320;48.128;11.592;2023-07-20T03:43:23;20.50;95.70
2621;DHT22;1320;48.128;11.592;2023-07-20T03:45:50;20.40;96.00
2621;DHT22;1320;48.128;11.592;2023-07-20T03:48:17;20.30;95.90
2621;DHT22;1320;48.128;11.592;2023-07-20T03:50:47;20.20;96.10
2621;DHT22;1320;48.128;11.592;2023-07-20T03:53:14;20.20;96.40
2621;DHT22;1320;48.128;11.592;2023-07-20T03:55:41;20.10;96.70
2621;DHT22;1320;48.128;11.592;2023-07-20T03:58:07;20.10;96.60
2621;DHT22;1320;48.128;11.592;2023-07-20T04:00:34;20.10;96.80
2621;DHT22;1320;48.128;11.592;2023-07-20T04:02:59;20.20;97.10
2621;DHT22;1320;48.128;11.592;2023-07-20T04:05:25;20.20;96.90
2621;DHT22;1320;48.128;11.592;2023-07-20T04:07:51;20.20;97.10
2621;DHT22;1320;48.128;11.592;2023-07-20T04:10:20;20.20;97.40
2621;DHT22;1320;48.128;11.592;2023-07-20T04:12:46;20.20;97.10
2621;DHT22;1320;48.128;11.592;2023-07-20T04:15:14;20.20;97.30
2621;DHT22;1320;48.128;11.592;2023-07-20T04:17:40;20.10;97.30
2621;DHT22;1320;48.128;11.592;2023-07-20T04:20:07;20.10;97.50
2621;DHT22;1320;48.128;11.592;2023-07-20T04:22:33;20.10;97.70
2621;DHT22;1320;48.128;11.592;2023-07-20T04:24:58;20.10;97.60
2621;DHT22;1320;48.128;11.592;2023-07-20T04:27:24;20.10;97.50
2621;DHT22;1320;48.128;11.592;2023-07-20T04:29:50;20.10;97.80
2621;DHT22;1320;48.128;11.592;2023-07-20T04:32:15;20.10;97.80
2621;DHT22;1320;48.128;11.592;2023-07-20T04:34:41;20.20;97.70
2621;DHT22;1320;48.128;11.592;2023-07-20T04:37:07;20.20;97.70
2621;DHT22;1320;48.128;11.592;2023-07-20T04:39:35;20.20;97.60
2621;DHT22;1320;48.128;11.592;2023-07-20T04:42:01;20.30;97.60
2621;DHT22;1320;48.128;11.592;2023-07-20T04:44:27;20.30;97.90
2621;DHT22;1320;48.128;11.592;2023-07-20T04:46:52;20.30;97.70
2621;DHT22;1320;48.128;11.592;2023-07-20T04:49:18;20.40;97.60
2621;DHT22;1320;48.128;11.592;2023-07-20T04:51:44;20.40;97.50
2621;DHT22;1320;48.128;11.592;2023-07-20T04:54:10;20.50;97.50
2621;DHT22;1320;48.128;11.592;2023-07-20T04:56:36;20.50;97.50
2621;DHT22;1320;48.128;11.592;2023-07-20T04:59:01;20.50;97.40
2621;DHT22;1320;48.128;11.592;2023-07-20T05:01:27;20.60;97.40
2621;DHT22;1320;48.128;11.592;2023-07-20T05:03:53;20.70;97.10
2621;DHT22;1320;48.128;11.592;2023-07-20T05:06:19;20.70;96.80
2621;DHT22;1320;48.128;11.592;2023-07-20T05:08:45;20.80;96.30
2621;DHT22;1320;48.128;11.592;2023-07-20T05:11:11;20.90;96.20
2621;DHT22;1320;48.128;11.592;2023-07-20T05:13:37;20.90;96.00
2621;DHT22;1320;48.128;11.592;2023-07-20T05:16:03;20.90;95.90
2621;DHT22;1320;48.128;11.592;2023-07-20T05:18:29;20.90;95.50
2621;DHT22;1320;48.128;11.592;2023-07-20T05:20:54;20.90;95.00
2621;DHT22;1320;48.128;11.592;2023-07-20T05:23:21;20.90;95.30
2621;DHT22;1320;48.128;11.592;2023-07-20T05:25:47;20.90;94.50
2621;DHT22;1320;48.128;11.592;2023-07-20T05:28:18;20.90;94.30
2621;DHT22;1320;48.128;11.592;2023-07-20T05:30:44;20.90;93.30
2621;DHT22;1320;48.128;11.592;2023-07-20T05:33:10;20.90;93.40
2621;DHT22;1320;48.128;11.592;2023-07-20T05:35:36;20.90;93.10
2621;DHT22;1320;48.128;11.592;2023-07-20T05:38:03;21.00;93.40
2621;DHT22;1320;48.128;11.592;2023-07-20T05:40:30;21.00;93.10
2621;DHT22;1320;48.128;11.592;2023-07-20T05:42:55;21.10;92.60
2621;DHT22;1320;48.128;11.592;2023-07-20T05:45:22;21.10;92.50
2621;DHT22;1320;48.128;11.592;2023-07-20T05:47:53;21.20;92.50
2621;DHT22;1320;48.128;11.592;2023-07-20T05:50:19;21.30;92.30
2621;DHT22;1320;48.128;11.592;2023-07-20T05:52:45;21.30;91.70
2621;DHT22;1320;48.128;11.592;2023-07-20T05:55:10;21.30;91.90
2621;DHT22;1320;48.128;11.592;2023-07-20T05:57:36;21.40;92.00
2621;DHT22;1320;48.128;11.592;2023-07-20T06:00:05;21.40;91.60
2621;DHT22;1320;48.128;11.592;2023-07-20T06:02:34;21.40;91.50
2621;DHT22;1320;48.128;11.592;2023-07-20T06:05:00;21.40;91.30
2621;DHT22;1320;48.128;11.592;2023-07-20T06:07:26;21.40;91.20
2621;DHT22;1320;48.128;11.592;2023-07-20T06:09:52;21.40;91.00
2621;DHT22;1320;48.128;11.592;2023-07-20T06:12:17;21.40;90.90
2621;DHT22;1320;48.128;11.592;2023-07-20T06:14:43;21.40;90.80
2621;DHT22;1320;48.128;11.592;2023-07-20T06:17:09;21.40;90.10
2621;DHT22;1320;48.128;11.592;2023-07-20T06:19:35;21.50;89.70
2621;DHT22;1320;48.128;11.592;2023-07-20T06:22:01;21.50;89.30
2621;DHT22;1320;48.128;11.592;2023-07-20T06:24:26;21.50;88.00
2621;DHT22;1320;48.128;11.592;2023-07-20T06:26:52;21.50;88.90
2621;DHT22;1320;48.128;11.592;2023-07-20T06:29:18;21.50;87.80
2621;DHT22;1320;48.128;11.592;2023-07-20T06:31:44;21.50;88.20
2621;DHT22;1320;48.128;11.592;2023-07-20T06:34:10;21.50;89.40
2621;DHT22;1320;48.128;11.592;2023-07-20T06:36:35;21.60;88.00
2621;DHT22;1320;48.128;11.592;2023-07-20T06:39:02;21.70;88.60
2621;DHT22;1320;48.128;11.592;2023-07-20T06:41:28;21.80;88.10
2621;DHT22;1320;48.128;11.592;2023-07-20T06:43:53;21.80;87.50
2621;DHT22;1320;48.128;11.592;2023-07-20T06:46:26;21.80;88.40
2621;DHT22;1320;48.128;11.592;2023-07-20T06:48:53;21.90;88.90
2621;DHT22;1320;48.128;11.592;2023-07-20T06:51:19;22.00;87.20
2621;DHT22;1320;48.128;11.592;2023-07-20T06:53:44;22.00;87.10
2621;DHT22;1320;48.128;11.592;2023-07-20T06:56:10;22.00;88.10
2621;DHT22;1320;48.128;11.592;2023-07-20T06:58:36;22.10;87.80
2621;DHT22;1320;48.128;11.592;2023-07-20T07:01:08;22.10;87.40
2621;DHT22;1320;48.128;11.592;2023-07-20T07:03:34;22.20;87.10
2621;DHT22;1320;48.128;11.592;2023-07-20T07:06:00;22.20;87.10
2621;DHT22;1320;48.128;11.592;2023-07-20T07:08:26;22.30;87.30
2621;DHT22;1320;48.128;11.592;2023-07-20T07:10:52;22.30;86.40
2621;DHT22;1320;48.128;11.592;2023-07-20T07:13:19;22.30;86.60
2621;DHT22;1320;48.128;11.592;2023-07-20T07:15:44;22.40;87.10
2621;DHT22;1320;48.128;11.592;2023-07-20T07:18:11;22.50;87.60
2621;DHT22;1320;48.128;11.592;2023-07-20T07:20:36;22.60;86.90
2621;DHT22;1320;48.128;11.592;2023-07-20T07:23:02;22.60;87.20
2621;DHT22;1320;48.128;11.592;2023-07-20T07:25:28;22.80;86.50
2621;DHT22;1320;48.128;11.592;2023-07-20T07:27:54;22.90;86.30
2621;DHT22;1320;48.128;11.592;2023-07-20T07:30:21;23.00;85.60
2621;DHT22;1320;48.128;11.592;2023-07-20T07:32:47;23.10;84.10
2621;DHT22;1320;48.128;11.592;2023-07-20T07:35:13;23.20;81.90
2621;DHT22;1320;48.128;11.592;2023-07-20T07:37:38;23.30;83.80
2621;DHT22;1320;48.128;11.592;2023-07-20T07:40:06;23.30;83.50
2621;DHT22;1320;48.128;11.592;2023-07-20T07:42:32;23.40;82.40
2621;DHT22;1320;48.128;11.592;2023-07-20T07:44:58;23.40;80.60
2621;DHT22;1320;48.128;11.592;2023-07-20T07:47:23;23.40;81.80
2621;DHT22;1320;48.128;11.592;2023-07-20T07:49:49;23.40;81.50
2621;DHT22;1320;48.128;11.592;2023-07-20T07:52:15;23.40;81.40
2621;DHT22;1320;48.128;11.592;2023-07-20T07:54:41;23.50;80.00
2621;DHT22;1320;48.128;11.592;2023-07-20T07:57:07;23.50;80.00
2621;DHT22;1320;48.128;11.592;2023-07-20T07:59:32;23.50;79.80
2621;DHT22;1320;48.128;11.592;2023-07-20T08:02:03;23.50;80.30
2621;DHT22;1320;48.128;11.592;2023-07-20T08:04:30;23.50;80.00
2621;DHT22;1320;48.128;11.592;2023-07-20T08:06:56;23.40;80.20
2621;DHT22;1320;48.128;11.592;2023-07-20T08:09:21;23.30;80.10
2621;DHT22;1320;48.128;11.592;2023-07-20T08:11:47;23.20;80.10
2621;DHT22;1320;48.128;11.592;2023-07-20T08:14:13;23.20;80.60
2621;DHT22;1320;48.128;11.592;2023-07-20T08:16:39;23.20;81.00
2621;DHT22;1320;48.128;11.592;2023-07-20T08:19:05;23.20;81.50
2621;DHT22;1320;48.128;11.592;2023-07-20T08:21:30;23.40;80.90
2621;DHT22;1320;48.128;11.592;2023-07-20T08:23:56;23.50;81.50
2621;DHT22;1320;48.128;11.592;2023-07-20T08:26:23;23.80;80.30
2621;DHT22;1320;48.128;11.592;2023-07-20T08:28:49;24.20;80.20
2621;DHT22;1320;48.128;11.592;2023-07-20T08:31:15;24.50;80.50
2621;DHT22;1320;48.128;11.592;2023-07-20T08:33:40;24.70;79.10
2621;DHT22;1320;48.128;11.592;2023-07-20T08:36:06;24.90;78.60
2621;DHT22;1320;48.128;11.592;2023-07-20T08:38:33;25.00;77.80
2621;DHT22;1320;48.128;11.592;2023-07-20T08:40:58;25.20;77.90
2621;DHT22;1320;48.128;11.592;2023-07-20T08:43:26;25.40;76.90
2621;DHT22;1320;48.128;11.592;2023-07-20T08:45:55;25.50;77.30
2621;DHT22;1320;48.128;11.592;2023-07-20T08:48:22;25.60;77.80
2621;DHT22;1320;48.128;11.592;2023-07-20T08:50:51;25.60;77.20
2621;DHT22;1320;48.128;11.592;2023-07-20T08:53:18;25.50;76.90
2621;DHT22;1320;48.128;11.592;2023-07-20T08:55:45;25.30;77.60
2621;DHT22;1320;48.128;11.592;2023-07-20T08:58:15;25.20;77.90
2621;DHT22;1320;48.128;11.592;2023-07-20T09:00:41;25.20;78.70
2621;DHT22;1320;48.128;11.592;2023-07-20T09:03:07;25.30;78.50
2621;DHT22;1320;48.128;11.592;2023-07-20T09:05:34;25.60;78.00
2621;DHT22;1320;48.128;11.592;2023-07-20T09:08:01;25.70;77.60
2621;DHT22;1320;48.128;11.592;2023-07-20T09:10:28;25.70;76.40
2621;DHT22;1320;48.128;11.592;2023-07-20T09:12:53;25.80;76.50
2621;DHT22;1320;48.128;11.592;2023-07-20T09:15:21;26.00;75.60
2621;DHT22;1320;48.128;11.592;2023-07-20T09:17:49;26.20;75.60
2621;DHT22;1320;48.128;11.592;2023-07-20T09:20:16;26.50;75.90
2621;DHT22;1320;48.128;11.592;2023-07-20T09:22:43;26.80;74.40
2621;DHT22;1320;48.128;11.592;2023-07-20T09:25:18;27.10;74.20
2621;DHT22;1320;48.128;11.592;2023-07-20T09:27:49;27.50;70.20
2621;DHT22;1320;48.128;11.592;2023-07-20T09:30:16;27.90;70.70
2621;DHT22;1320;48.128;11.592;2023-07-20T09:32:49;28.30;68.70
2621;DHT22;1320;48.128;11.592;2023-07-20T09:35:20;28.50;69.30
2621;DHT22;1320;48.128;11.592;2023-07-20T09:38:06;28.60;67.90
2621;DHT22;1320;48.128;11.592;2023-07-20T09:40:37;28.40;66.40
2621;DHT22;1320;48.128;11.592;2023-07-20T09:43:09;28.00;67.90
2621;DHT22;1320;48.128;11.592;2023-07-20T09:45:40;27.70;68.30
2621;DHT22;1320;48.128;11.592;2023-07-20T09:48:08;27.60;69.80
2621;DHT22;1320;48.128;11.592;2023-07-20T09:50:39;27.60;69.40
2621;DHT22;1320;48.128;11.592;2023-07-20T09:53:06;27.60;71.00
2621;DHT22;1320;48.128;11.592;2023-07-20T09:55:33;27.70;71.10
2621;DHT22;1320;48.128;11.592;2023-07-20T09:58:00;27.80;72.20
2621;DHT22;1320;48.128;11.592;2023-07-20T10:00:26;27.80;71.20
2621;DHT22;1320;48.128;11.592;2023-07-20T10:02:52;27.80;70.70
2621;DHT22;1320;48.128;11.592;2023-07-20T10:05:19;28.00;68.50
2621;DHT22;1320;48.128;11.592;2023-07-20T10:07:50;28.30;67.70
2621;DHT22;1320;48.128;11.592;2023-07-20T10:10:17;28.40;68.10
2621;DHT22;1320;48.128;11.592;2023-07-20T10:12:46;28.40;67.60
2621;DHT22;1320;48.128;11.592;2023-07-20T10:15:33;28.20;67.70
2621;DHT22;1320;48.128;11.592;2023-07-20T10:20:59;27.80;69.00
2621;DHT22;1320;48.128;11.592;2023-07-20T10:23:27;27.30;70.30
2621;DHT22;1320;48.128;11.592;2023-07-20T10:25:54;27.20;70.80
2621;DHT22;1320;48.128;11.592;2023-07-20T10:28:20;27.00;71.50
2621;DHT22;1320;48.128;11.592;2023-07-20T10:30:48;26.80;71.20
2621;DHT22;1320;48.128;11.592;2023-07-20T10:33:15;26.50;71.90
2621;DHT22;1320;48.128;11.592;2023-07-20T10:38:18;25.90;73.30
2621;DHT22;1320;48.128;11.592;2023-07-20T10:40:54;25.70;73.70
2621;DHT22;1320;48.128;11.592;2023-07-20T10:43:20;25.60;73.70
2621;DHT22;1320;48.128;11.592;2023-07-20T10:45:51;25.60;74.10
2621;DHT22;1320;48.128;11.592;2023-07-20T10:48:24;25.80;73.80
2621;DHT22;1320;48.128;11.592;2023-07-20T10:51:12;26.20;73.30
2621;DHT22;1320;48.128;11.592;2023-07-20T10:53:41;26.70;73.50
2621;DHT22;1320;48.128;11.592;2023-07-20T10:56:14;27.00;72.50
2621;DHT22;1320;48.128;11.592;2023-07-20T10:58:40;27.40;72.20
2621;DHT22;1320;48.128;11.592;2023-07-20T11:01:08;27.70;71.60
2621;DHT22;1320;48.128;11.592;2023-07-20T11:03:36;27.90;70.50
2621;DHT22;1320;48.128;11.592;2023-07-20T11:06:30;28.10;69.40
2621;DHT22;1320;48.128;11.592;2023-07-20T11:09:05;28.10;69.40
2621;DHT22;1320;48.128;11.592;2023-07-20T11:11:33;28.00;70.20
2621;DHT22;1320;48.128;11.592;2023-07-20T11:16:43;27.80;72.20
2621;DHT22;1320;48.128;11.592;2023-07-20T11:19:23;27.80;72.00
2621;DHT22;1320;48.128;11.592;2023-07-20T11:21:54;27.80;70.20
2621;DHT22;1320;48.128;11.592;2023-07-20T11:24:20;27.90;71.30
2621;DHT22;1320;48.128;11.592;2023-07-20T11:26:49;28.10;70.00
2621;DHT22;1320;48.128;11.592;2023-07-20T11:29:23;28.20;68.90
2621;DHT22;1320;48.128;11.592;2023-07-20T11:31:51;28.30;68.80
2621;DHT22;1320;48.128;11.592;2023-07-20T11:34:19;28.20;68.00
2621;DHT22;1320;48.128;11.592;2023-07-20T11:36:49;28.10;68.00
2621;DHT22;1320;48.128;11.592;2023-07-20T11:39:21;27.90;69.70
2621;DHT22;1320;48.128;11.592;2023-07-20T11:44:13;27.70;68.60
2621;DHT22;1320;48.128;11.592;2023-07-20T11:46:41;27.70;68.80
2621;DHT22;1320;48.128;11.592;2023-07-20T11:49:11;27.70;69.20
2621;DHT22;1320;48.128;11.592;2023-07-20T11:51:38;27.80;70.50
2621;DHT22;1320;48.128;11.592;2023-07-20T11:54:07;27.90;69.30
2621;DHT22;1320;48.128;11.592;2023-07-20T11:56:33;28.00;68.60
2621;DHT22;1320;48.128;11.592;2023-07-20T11:58:59;28.20;66.90
2621;DHT22;1320;48.128;11.592;2023-07-20T12:01:28;28.30;68.50
2621;DHT22;1320;48.128;11.592;2023-07-20T12:04:02;28.40;66.60
2621;DHT22;1320;48.128;11.592;2023-07-20T12:06:29;28.60;66.70
2621;DHT22;1320;48.128;11.592;2023-07-20T12:08:58;28.70;66.30
2621;DHT22;1320;48.128;11.592;2023-07-20T12:11:37;28.60;66.20
2621;DHT22;1320;48.128;11.592;2023-07-20T12:14:08;28.40;66.80
2621;DHT22;1320;48.128;11.592;2023-07-20T12:16:35;28.10;66.80
2621;DHT22;1320;48.128;11.592;2023-07-20T12:19:12;28.00;67.40
2621;DHT22;1320;48.128;11.592;2023-07-20T12:21:40;27.80;67.80
2621;DHT22;1320;48.128;11.592;2023-07-20T12:24:07;27.70;68.30
2621;DHT22;1320;48.128;11.592;2023-07-20T12:26:34;27.60;69.50
2621;DHT22;1320;48.128;11.592;2023-07-20T12:29:00;27.70;68.70
2621;DHT22;1320;48.128;11.592;2023-07-20T12:31:27;27.70;68.70
2621;DHT22;1320;48.128;11.592;2023-07-20T12:33:54;27.80;68.80
2621;DHT22;1320;48.128;11.592;2023-07-20T12:36:22;27.90;69.40
2621;DHT22;1320;48.128;11.592;2023-07-20T12:38:48;28.00;69.30
2621;DHT22;1320;48.128;11.592;2023-07-20T12:41:14;28.20;68.20
2621;DHT22;1320;48.128;11.592;2023-07-20T12:43:43;28.50;69.00
2621;DHT22;1320;48.128;11.592;2023-07-20T12:46:10;28.70;67.30
2621;DHT22;1320;48.128;11.592;2023-07-20T12:48:36;28.80;67.90
2621;DHT22;1320;48.128;11.592;2023-07-20T12:51:06;29.00;67.50
2621;DHT22;1320;48.128;11.592;2023-07-20T12:53:33;29.20;68.20
2621;DHT22;1320;48.128;11.592;2023-07-20T12:55:59;29.40;66.00
2621;DHT22;1320;48.128;11.592;2023-07-20T12:58:25;29.50;65.60
2621;DHT22;1320;48.128;11.592;2023-07-20T13:00:51;29.50;67.20
2621;DHT22;1320;48.128;11.592;2023-07-20T13:03:17;29.50;66.70
2621;DHT22;1320;48.128;11.592;2023-07-20T13:05:47;29.60;66.50
2621;DHT22;1320;48.128;11.592;2023-07-20T13:08:14;29.70;65.40
2621;DHT22;1320;48.128;11.592;2023-07-20T13:10:39;29.70;66.80
2621;DHT22;1320;48.128;11.592;2023-07-20T13:13:05;29.80;64.50
2621;DHT22;1320;48.128;11.592;2023-07-20T13:15:32;30.00;65.80
2621;DHT22;1320;48.128;11.592;2023-07-20T13:18:05;30.20;64.40
2621;DHT22;1320;48.128;11.592;2023-07-20T13:20:31;30.40;64.90
2621;DHT22;1320;48.128;11.592;2023-07-20T13:22:56;30.50;63.90
2621;DHT22;1320;48.128;11.592;2023-07-20T13:25:22;30.70;63.90
2621;DHT22;1320;48.128;11.592;2023-07-20T13:27:48;30.80;63.80
2621;DHT22;1320;48.128;11.592;2023-07-20T13:30:13;31.00;63.30
2621;DHT22;1320;48.128;11.592;2023-07-20T13:32:43;31.00;61.80
2621;DHT22;1320;48.128;11.592;2023-07-20T13:35:10;30.90;61.70
2621;DHT22;1320;48.128;11.592;2023-07-20T13:37:36;30.80;62.20
2621;DHT22;1320;48.128;11.592;2023-07-20T13:40:01;30.60;62.40
2621;DHT22;1320;48.128;11.592;2023-07-20T13:42:29;30.40;63.10
2621;DHT22;1320;48.128;11.592;2023-07-20T13:44:55;30.50;62.70
2621;DHT22;1320;48.128;11.592;2023-07-20T13:47:20;30.60;64.20
2621;DHT22;1320;48.128;11.592;2023-07-20T13:49:46;30.90;63.50
2621;DHT22;1320;48.128;11.592;2023-07-20T13:52:12;31.30;61.60
2621;DHT22;1320;48.128;11.592;2023-07-20T13:54:37;31.50;60.40
2621;DHT22;1320;48.128;11.592;2023-07-20T13:57:03;31.50;61.10
2621;DHT22;1320;48.128;11.592;2023-07-20T13:59:29;31.40;61.00
2621;DHT22;1320;48.128;11.592;2023-07-20T14:01:55;31.40;60.90
2621;DHT22;1320;48.128;11.592;2023-07-20T14:04:20;31.30;59.70
2621;DHT22;1320;48.128;11.592;2023-07-20T14:06:46;31.20;59.90
2621;DHT22;1320;48.128;11.592;2023-07-20T14:09:13;31.00;60.80
2621;DHT22;1320;48.128;11.592;2023-07-20T14:11:38;31.00;59.80
2621;DHT22;1320;48.128;11.592;2023-07-20T14:14:04;30.80;61.80
2621;DHT22;1320;48.128;11.592;2023-07-20T14:16:30;30.70;61.50
2621;DHT22;1320;48.128;11.592;2023-07-20T14:18:57;30.70;61.20
2621;DHT22;1320;48.128;11.592;2023-07-20T14:21:23;30.80;62.60
2621;DHT22;1320;48.128;11.592;2023-07-20T14:23:51;30.80;62.60
2621;DHT22;1320;48.128;11.592;2023-07-20T14:26:17;31.00;61.50
2621;DHT22;1320;48.128;11.592;2023-07-20T14:28:43;31.10;60.90
2621;DHT22;1320;48.128;11.592;2023-07-20T14:31:08;31.20;60.20
2621;DHT22;1320;48.128;11.592;2023-07-20T14:33:34;31.40;61.00
2621;DHT22;1320;48.128;11.592;2023-07-20T14:36:00;31.60;59.70
2621;DHT22;1320;48.128;11.592;2023-07-20T14:38:28;31.80;59.30
2621;DHT22;1320;48.128;11.592;2023-07-20T14:40:54;32.00;58.80
2621;DHT22;1320;48.128;11.592;2023-07-20T14:43:20;32.30;58.50
2621;DHT22;1320;48.128;11.592;2023-07-20T14:45:46;32.40;59.00
2621;DHT22;1320;48.128;11.592;2023-07-20T14:48:12;32.60;57.70
2621;DHT22;1320;48.128;11.592;2023-07-20T14:50:38;32.80;57.30
2621;DHT22;1320;48.128;11.592;2023-07-20T14:53:04;33.00;57.10
2621;DHT22;1320;48.128;11.592;2023-07-20T14:55:29;33.10;57.40
2621;DHT22;1320;48.128;11.592;2023-07-20T14:57:55;33.30;56.90
2621;DHT22;1320;48.128;11.592;2023-07-20T15:00:21;33.30;57.20
2621;DHT22;1320;48.128;11.592;2023-07-20T15:02:46;33.30;57.70
2621;DHT22;1320;48.128;11.592;2023-07-20T15:05:12;33.30;57.30
2621;DHT22;1320;48.128;11.592;2023-07-20T15:07:45;33.10;56.60
2621;DHT22;1320;48.128;11.592;2023-07-20T15:10:11;32.70;57.80
2621;DHT22;1320;48.128;11.592;2023-07-20T15:12:36;32.50;58.60
2621;DHT22;1320;48.128;11.592;2023-07-20T15:15:06;32.60;58.30
2621;DHT22;1320;48.128;11.592;2023-07-20T15:17:33;32.60;58.10
2621;DHT22;1320;48.128;11.592;2023-07-20T15:20:00;32.80;58.40
2621;DHT22;1320;48.128;11.592;2023-07-20T15:22:26;32.80;58.30
2621;DHT22;1320;48.128;11.592;2023-07-20T15:24:52;33.10;57.50
2621;DHT22;1320;48.128;11.592;2023-07-20T15:27:17;33.20;57.60
2621;DHT22;1320;48.128;11.592;2023-07-20T15:29:44;33.40;56.60
2621;DHT22;1320;48.128;11.592;2023-07-20T15:32:10;33.50;56.80
2621;DHT22;1320;48.128;11.592;2023-07-20T15:34:36;33.70;56.70
2621;DHT22;1320;48.128;11.592;2023-07-20T15:37:02;33.80;56.50
2621;DHT22;1320;48.128;11.592;2023-07-20T15:39:28;33.80;56.00
2621;DHT22;1320;48.128;11.592;2023-07-20T15:41:55;33.90;56.10
2621;DHT22;1320;48.128;11.592;2023-07-20T15:44:21;34.00;56.10
2621;DHT22;1320;48.128;11.592;2023-07-20T15:46:48;34.10;55.90
2621;DHT22;1320;48.128;11.592;2023-07-20T15:49:14;34.20;55.70
2621;DHT22;1320;48.128;11.592;2023-07-20T15:51:40;34.30;54.40
2621;DHT22;1320;48.128;11.592;2023-07-20T15:54:08;34.10;55.10
2621;DHT22;1320;48.128;11.592;2023-07-20T15:56:38;33.80;55.50
2621;DHT22;1320;48.128;11.592;2023-07-20T15:59:05;33.50;56.30
2621;DHT22;1320;48.128;11.592;2023-07-20T16:01:31;33.30;56.60
2621;DHT22;1320;48.128;11.592;2023-07-20T16:03:57;33.00;57.80
2621;DHT22;1320;48.128;11.592;2023-07-20T16:06:23;32.80;58.40